createdAt,value
2022-12-06T00:01:12.360Z,99612.22
2022-12-06T00:04:03.221Z,99608.84
2022-12-06T00:06:52.604Z,99607.19
2022-12-06T00:09:39.919Z,99611.41
2022-12-06T00:12:28.127Z,99616.59
2022-12-06T00:15:15.709Z,99616.66
2022-12-06T00:18:03.114Z,99614.88
2022-12-06T00:20:51.523Z,99615.78
2022-12-06T00:23:39.674Z,99607.25
2022-12-06T00:26:27.368Z,99616.59
2022-12-06T00:29:17.149Z,99603.06
2022-12-06T00:32:04.420Z,99603.88
2022-12-06T00:34:51.789Z,99599.69
2022-12-06T00:37:40.236Z,99598.84
2022-12-06T00:40:27.643Z,99595.50
2022-12-06T00:43:14.675Z,99598.06
2022-12-06T00:46:02.323Z,99598.84
2022-12-06T00:48:50.255Z,99590.34
2022-12-06T00:51:38.859Z,99586.13
2022-12-06T00:54:27.321Z,99588.59
2022-12-06T00:57:14.447Z,99587.78
2022-12-06T01:00:01.878Z,99595.34
2022-12-06T01:02:49.105Z,99584.44
2022-12-06T01:05:41.678Z,99586.97
2022-12-06T01:08:28.767Z,99579.34
2022-12-06T01:11:18.327Z,99586.97
2022-12-06T01:14:05.543Z,99587.78
2022-12-06T01:16:52.774Z,99592.00
2022-12-06T01:19:40.099Z,99587.78
2022-12-06T01:22:27.231Z,99587.78
2022-12-06T01:25:15.008Z,99596.22
2022-12-06T01:28:03.664Z,99596.16
2022-12-06T01:30:50.952Z,99593.69
2022-12-06T01:33:38.039Z,99602.97
2022-12-06T01:36:27.875Z,99603.78
2022-12-06T01:39:14.991Z,99603.88
2022-12-06T01:42:02.096Z,99601.25
2022-12-06T01:44:54.035Z,99597.03
2022-12-06T01:47:45.854Z,99597.03
2022-12-06T01:50:34.183Z,99591.94
2022-12-06T01:53:25.707Z,99590.25
2022-12-06T01:56:13.256Z,99581.75
2022-12-06T01:59:01.419Z,99580.88
2022-12-06T02:01:50.834Z,99580.88
2022-12-06T02:04:38.377Z,99575.88
2022-12-06T02:07:27.790Z,99591.94
2022-12-06T02:10:15.368Z,99580.06
2022-12-06T02:13:02.732Z,99582.63
2022-12-06T02:16:00.334Z,99590.25
2022-12-06T02:18:55.185Z,99581.75
2022-12-06T02:21:52.360Z,99578.34
2022-12-06T02:25:11.606Z,99575.88
2022-12-06T02:28:44.198Z,99579.25
2022-12-06T02:31:40.425Z,99564.09
2022-12-06T02:34:37.289Z,99561.53
2022-12-06T02:37:32.586Z,99563.16
2022-12-06T02:40:24.959Z,99564.91
2022-12-06T02:43:17.399Z,99557.25
2022-12-06T02:46:06.541Z,99552.19
2022-12-06T02:48:55.587Z,99560.53
2022-12-06T02:51:43.211Z,99556.38
2022-12-06T02:54:31.178Z,99558.88
2022-12-06T02:57:21.051Z,99550.34
2022-12-06T03:00:33.319Z,99553.00
2022-12-06T03:03:46.305Z,99553.00
2022-12-06T03:07:03.552Z,99547.91
2022-12-06T03:10:03.606Z,99552.09
2022-12-06T03:13:03.343Z,99544.47
2022-12-06T03:16:01.133Z,99547.09
2022-12-06T03:18:52.187Z,99542.81
2022-12-06T03:21:45.776Z,99542.00
2022-12-06T03:24:37.239Z,99538.66
2022-12-06T03:27:26.583Z,99538.66
2022-12-06T03:30:15.759Z,99536.91
2022-12-06T03:33:04.182Z,99541.19
2022-12-06T03:35:54.054Z,99532.63
2022-12-06T03:38:52.811Z,99540.34
2022-12-06T03:41:52.166Z,99538.66
2022-12-06T03:44:39.499Z,99526.81
2022-12-06T03:47:37.448Z,99532.63
2022-12-06T03:50:31.358Z,99534.38
2022-12-06T03:53:19.157Z,99536.09
2022-12-06T03:56:08.632Z,99533.56
2022-12-06T03:58:56.111Z,99531.00
2022-12-06T04:01:43.287Z,99529.28
2022-12-06T04:04:30.246Z,99532.63
2022-12-06T04:07:21.326Z,99531.00
2022-12-06T04:10:10.035Z,99525.94
2022-12-06T04:13:06.226Z,99526.72
2022-12-06T04:15:57.365Z,99518.28
2022-12-06T04:18:43.651Z,99519.19
2022-12-06T04:21:56.568Z,99512.38
2022-12-06T04:24:43.887Z,99507.53
2022-12-06T04:27:48.694Z,99511.63
2022-12-06T04:30:54.159Z,99503.25
2022-12-06T04:33:58.446Z,99502.44
2022-12-06T04:37:03.716Z,99494.81
2022-12-06T04:39:51.222Z,99505.88
2022-12-06T04:42:56.024Z,99494.91
2022-12-06T04:45:44.538Z,99496.59
2022-12-06T04:48:31.899Z,99497.44
2022-12-06T04:51:19.095Z,99494.91
2022-12-06T04:54:07.309Z,99497.34
2022-12-06T04:56:54.485Z,99491.41
2022-12-06T04:59:44.495Z,99493.97
2022-12-06T05:02:32.960Z,99491.41
2022-12-06T05:05:20.329Z,99482.91
2022-12-06T05:08:07.707Z,99486.34
2022-12-06T05:10:55.096Z,99491.41
2022-12-06T05:13:42.568Z,99497.34
2022-12-06T05:16:30.151Z,99495.69
2022-12-06T05:19:18.731Z,99504.97
2022-12-06T05:22:05.945Z,99501.59
2022-12-06T05:24:53.344Z,99492.34
2022-12-06T05:27:40.592Z,99504.22
2022-12-06T05:30:27.535Z,99499.13
2022-12-06T05:33:14.665Z,99492.34
2022-12-06T05:36:09.291Z,99489.81
2022-12-06T05:38:58.294Z,99494.91
2022-12-06T05:41:45.599Z,99488.97
2022-12-06T05:44:32.759Z,99494.06
2022-12-06T05:47:19.856Z,99500.03
2022-12-06T05:50:08.847Z,99500.03
2022-12-06T05:52:59.789Z,99495.88
2022-12-06T05:55:47.746Z,99505.13
2022-12-06T05:58:34.877Z,99505.13
2022-12-06T06:01:22.147Z,99510.22
2022-12-06T06:04:09.355Z,99514.41
2022-12-06T06:06:56.948Z,99500.97
2022-12-06T06:09:45.551Z,99502.56
2022-12-06T06:12:32.923Z,99505.97
2022-12-06T06:15:20.555Z,99511.94
2022-12-06T06:18:08.044Z,99509.41
2022-12-06T06:20:58.899Z,99512.75
2022-12-06T06:23:46.205Z,99516.22
2022-12-06T06:26:34.820Z,99516.22
2022-12-06T06:29:22.214Z,99518.75
2022-12-06T06:32:09.356Z,99512.03
2022-12-06T06:34:56.774Z,99516.22
2022-12-06T06:37:43.874Z,99514.50
2022-12-06T06:40:31.354Z,99511.94
2022-12-06T06:43:20.435Z,99513.75
2022-12-06T06:46:08.625Z,99506.94
2022-12-06T06:48:56.011Z,99517.91
2022-12-06T06:51:42.986Z,99516.34
2022-12-06T06:54:30.223Z,99518.91
2022-12-06T06:57:18.418Z,99518.84
2022-12-06T07:00:09.207Z,99521.41
2022-12-06T07:02:56.346Z,99516.34
2022-12-06T07:05:25.185Z,99517.13
2022-12-06T07:07:53.891Z,99510.28
2022-12-06T07:10:22.544Z,99516.22
2022-12-06T07:12:54.137Z,99517.03
2022-12-06T07:15:24.162Z,99516.22
2022-12-06T07:17:53.947Z,99516.22
2022-12-06T07:20:22.554Z,99512.75
2022-12-06T07:22:51.290Z,99516.13
2022-12-06T07:25:19.879Z,99519.50
2022-12-06T07:27:48.532Z,99514.41
2022-12-06T07:30:19.631Z,99510.16
2022-12-06T07:32:52.904Z,99511.03
2022-12-06T07:35:21.950Z,99510.97
2022-12-06T07:37:50.548Z,99510.22
2022-12-06T07:40:30.706Z,99516.94
2022-12-06T07:43:27.548Z,99524.56
2022-12-06T07:45:56.760Z,99520.38
2022-12-06T07:48:26.778Z,99517.84
2022-12-06T07:50:55.450Z,99525.47
2022-12-06T07:53:24.268Z,99522.13
2022-12-06T07:55:52.854Z,99533.09
2022-12-06T07:58:21.661Z,99525.47
2022-12-06T08:00:50.299Z,99528.00
2022-12-06T08:03:18.865Z,99526.31
2022-12-06T08:05:56.438Z,99537.28
2022-12-06T08:08:28.827Z,99526.31
2022-12-06T08:11:01.005Z,99524.66
2022-12-06T08:13:30.382Z,99521.31
2022-12-06T08:15:59.060Z,99528.09
2022-12-06T08:18:27.699Z,99521.31
2022-12-06T08:20:59.147Z,99524.75
2022-12-06T08:23:33.869Z,99528.09
2022-12-06T08:26:07.683Z,99523.84
2022-12-06T08:28:38.469Z,99529.84
2022-12-06T08:31:08.832Z,99530.63
2022-12-06T08:33:37.808Z,99534.91
2022-12-06T08:36:12.027Z,99539.13
2022-12-06T08:38:41.363Z,99537.47
2022-12-06T08:41:31.374Z,99544.28
2022-12-06T08:44:02.098Z,99535.81
2022-12-06T08:46:31.929Z,99537.47
2022-12-06T08:49:01.627Z,99540.00
2022-12-06T08:51:32.459Z,99540.81
2022-12-06T08:54:01.244Z,99534.91
2022-12-06T08:56:30.775Z,99533.19
2022-12-06T08:58:59.755Z,99536.56
2022-12-06T09:01:37.340Z,99536.56
2022-12-06T09:04:10.848Z,99537.38
2022-12-06T09:06:43.631Z,99537.38
2022-12-06T09:09:13.359Z,99540.72
2022-12-06T09:11:42.519Z,99530.56
2022-12-06T09:14:21.011Z,99525.47
2022-12-06T09:16:53.077Z,99536.56
2022-12-06T09:19:22.463Z,99533.09
2022-12-06T09:21:52.475Z,99535.59
2022-12-06T09:24:21.316Z,99529.66
2022-12-06T09:26:50.788Z,99526.22
2022-12-06T09:29:20.291Z,99528.78
2022-12-06T09:31:49.264Z,99533.88
2022-12-06T09:34:18.742Z,99532.13
2022-12-06T09:36:54.123Z,99532.13
2022-12-06T09:39:26.698Z,99522.78
2022-12-06T09:42:31.991Z,99527.88
2022-12-06T09:45:32.815Z,99528.78
2022-12-06T09:48:37.749Z,99521.94
2022-12-06T09:51:24.278Z,99528.78
2022-12-06T09:54:10.827Z,99532.13
2022-12-06T09:56:46.359Z,99531.31
2022-12-06T09:59:27.082Z,99536.31
2022-12-06T10:02:21.669Z,99532.97
2022-12-06T10:05:25.194Z,99536.22
2022-12-06T10:08:04.684Z,99527.88
2022-12-06T10:10:50.783Z,99538.06
2022-12-06T10:13:36.393Z,99538.88
2022-12-06T10:16:13.913Z,99537.16
2022-12-06T10:19:02.303Z,99542.16
2022-12-06T10:21:44.095Z,99537.06
2022-12-06T10:24:26.833Z,99533.78
2022-12-06T10:27:05.357Z,99531.16
2022-12-06T10:29:46.016Z,99534.63
2022-12-06T10:32:20.256Z,99532.00
2022-12-06T10:34:57.135Z,99537.06
2022-12-06T10:37:39.205Z,99537.88
2022-12-06T10:40:15.794Z,99533.69
2022-12-06T10:42:54.983Z,99539.53
2022-12-06T10:45:47.576Z,99534.53
2022-12-06T10:48:23.163Z,99540.44
2022-12-06T10:50:59.670Z,99537.88
2022-12-06T10:53:34.202Z,99537.88
2022-12-06T10:56:08.900Z,99533.63
2022-12-06T10:58:45.946Z,99529.38
2022-12-06T11:01:20.384Z,99532.81
2022-12-06T11:04:01.047Z,99538.69
2022-12-06T11:06:35.000Z,99544.63
2022-12-06T11:09:15.717Z,99534.44
2022-12-06T11:11:45.878Z,99529.19
2022-12-06T11:14:24.835Z,99531.00
2022-12-06T11:16:57.432Z,99528.47
2022-12-06T11:19:33.498Z,99533.56
2022-12-06T11:22:12.504Z,99535.19
2022-12-06T11:24:51.373Z,99542.72
2022-12-06T11:27:31.981Z,99532.63
2022-12-06T11:30:04.159Z,99529.28
2022-12-06T11:32:32.811Z,99539.38
2022-12-06T11:35:02.598Z,99535.09
2022-12-06T11:37:34.308Z,99539.38
2022-12-06T11:40:10.131Z,99537.63
2022-12-06T11:42:38.743Z,99535.00
2022-12-06T11:45:15.635Z,99519.72
2022-12-06T11:47:44.358Z,99523.97
2022-12-06T11:50:19.999Z,99525.63
2022-12-06T11:52:54.894Z,99520.53
2022-12-06T11:55:27.127Z,99518.00
2022-12-06T11:58:02.879Z,99514.56
2022-12-06T12:00:32.899Z,99508.63
2022-12-06T12:03:01.740Z,99508.56
2022-12-06T12:05:34.487Z,99507.72
2022-12-06T12:08:07.667Z,99502.56
2022-12-06T12:10:39.359Z,99501.66
2022-12-06T12:13:40.783Z,99509.28
2022-12-06T12:16:19.476Z,99507.66
2022-12-06T12:18:56.859Z,99506.75
2022-12-06T12:21:36.910Z,99505.84
2022-12-06T12:24:07.711Z,99506.66
2022-12-06T12:26:42.759Z,99504.97
2022-12-06T12:29:20.055Z,99498.94
2022-12-06T12:31:56.473Z,99496.41
2022-12-06T12:34:27.426Z,99505.69
2022-12-06T12:37:00.395Z,99495.50
2022-12-06T12:39:35.506Z,99503.06
2022-12-06T12:42:04.465Z,99509.88
2022-12-06T12:44:38.141Z,99509.78
2022-12-06T12:47:19.996Z,99506.44
2022-12-06T12:50:02.901Z,99503.06
2022-12-06T12:52:37.815Z,99506.44
2022-12-06T12:55:19.506Z,99505.59
2022-12-06T12:57:50.933Z,99511.53
2022-12-06T13:00:22.514Z,99506.44
2022-12-06T13:02:57.553Z,99513.25
2022-12-06T13:05:34.020Z,99506.53
2022-12-06T13:08:13.061Z,99508.06
2022-12-06T13:10:45.187Z,99502.97
2022-12-06T13:13:18.767Z,99504.72
2022-12-06T13:15:49.972Z,99500.44
2022-12-06T13:18:24.544Z,99508.91
2022-12-06T13:20:56.610Z,99503.81
2022-12-06T13:23:28.879Z,99499.53
2022-12-06T13:26:16.484Z,99498.72
2022-12-06T13:28:52.241Z,99499.53
2022-12-06T13:31:25.475Z,99494.44
2022-12-06T13:33:59.598Z,99489.44
2022-12-06T13:36:32.881Z,99498.72
2022-12-06T13:39:37.905Z,99492.78
2022-12-06T13:42:23.091Z,99488.63
2022-12-06T13:44:59.419Z,99490.25
2022-12-06T13:47:51.688Z,99486.97
2022-12-06T13:50:53.049Z,99497.16
2022-12-06T13:53:23.492Z,99491.19
2022-12-06T13:56:02.214Z,99492.88
2022-12-06T13:58:50.196Z,99492.97
2022-12-06T14:01:43.650Z,99491.31
2022-12-06T14:04:38.887Z,99498.94
2022-12-06T14:09:43.801Z,99497.16
2022-12-06T14:12:20.702Z,99494.63
2022-12-06T14:14:59.891Z,99497.97
2022-12-06T14:20:30.897Z,99503.97
2022-12-06T14:23:01.089Z,99514.97
2022-12-06T14:25:31.608Z,99507.34
2022-12-06T14:28:07.453Z,99510.69
2022-12-06T14:30:36.770Z,99506.44
2022-12-06T14:33:20.403Z,99507.34
2022-12-06T14:35:54.048Z,99509.06
2022-12-06T14:38:26.910Z,99501.34
2022-12-06T14:41:13.479Z,99506.44
2022-12-06T14:43:43.379Z,99499.69
2022-12-06T14:46:15.593Z,99496.25
2022-12-06T14:49:03.378Z,99499.69
2022-12-06T14:51:41.144Z,99494.63
2022-12-06T14:54:30.284Z,99492.06
2022-12-06T14:56:58.920Z,99498.06
2022-12-06T15:00:11.093Z,99498.06
2022-12-06T15:02:24.905Z,99497.25
2022-12-06T15:04:53.801Z,99496.41
2022-12-06T15:07:40.536Z,99497.31
2022-12-06T15:10:22.491Z,99493.94
2022-12-06T15:12:58.021Z,99494.78
2022-12-06T15:15:35.172Z,99491.31
2022-12-06T15:18:23.072Z,99490.59
2022-12-06T15:20:53.575Z,99494.03
2022-12-06T15:23:38.325Z,99496.56
2022-12-06T15:26:12.471Z,99498.22
2022-12-06T15:28:41.757Z,99498.22
2022-12-06T15:31:18.978Z,99495.69
2022-12-06T15:33:48.275Z,99490.59
2022-12-06T15:36:23.720Z,99499.88
2022-12-06T15:38:52.611Z,99498.22
2022-12-06T15:41:25.392Z,99503.31
2022-12-06T15:43:55.280Z,99493.13
2022-12-06T15:46:27.336Z,99500.78
2022-12-06T15:48:56.917Z,99503.31
2022-12-06T15:51:27.804Z,99499.88
2022-12-06T15:53:59.363Z,99506.66
2022-12-06T15:56:31.855Z,99498.22
2022-12-06T15:59:00.639Z,99493.94
2022-12-06T16:01:34.531Z,99497.47
2022-12-06T16:04:04.051Z,99494.91
2022-12-06T16:06:32.707Z,99496.56
2022-12-06T16:09:01.311Z,99500.00
2022-12-06T16:11:31.272Z,99497.47
2022-12-06T16:13:59.856Z,99500.00
2022-12-06T16:16:28.696Z,99503.41
2022-12-06T16:18:57.389Z,99505.84
2022-12-06T16:21:29.711Z,99507.56
2022-12-06T16:24:17.704Z,99504.22
2022-12-06T16:26:48.075Z,99501.66
2022-12-06T16:29:20.624Z,99499.03
2022-12-06T16:31:49.540Z,99504.13
2022-12-06T16:34:18.316Z,99500.69
2022-12-06T16:36:59.574Z,99506.59
2022-12-06T16:39:30.311Z,99498.13
2022-12-06T16:42:00.386Z,99498.94
2022-12-06T16:44:29.050Z,99498.06
2022-12-06T16:46:57.976Z,99498.91
2022-12-06T16:49:48.459Z,99498.91
2022-12-06T16:52:18.175Z,99498.06
2022-12-06T16:54:47.035Z,99498.91
2022-12-06T16:57:19.491Z,99493.81
2022-12-06T16:59:48.226Z,99494.63
2022-12-06T17:02:28.980Z,99486.97
2022-12-06T17:04:58.923Z,99499.69
2022-12-06T17:07:28.159Z,99500.50
2022-12-06T17:09:56.759Z,99498.91
2022-12-06T17:12:27.220Z,99487.88
2022-12-06T17:14:55.796Z,99487.88
2022-12-06T17:17:26.228Z,99489.53
2022-12-06T17:19:56.206Z,99487.88
2022-12-06T17:22:25.461Z,99483.63
2022-12-06T17:24:54.071Z,99490.41
2022-12-06T17:27:22.742Z,99488.78
2022-12-06T17:29:52.762Z,99488.84
2022-12-06T17:32:22.096Z,99489.69
2022-12-06T17:34:50.747Z,99494.78
2022-12-06T17:37:19.346Z,99495.69
2022-12-06T17:39:48.517Z,99493.13
2022-12-06T17:42:33.939Z,99493.22
2022-12-06T17:45:04.337Z,99493.31
2022-12-06T17:47:33.826Z,99494.91
2022-12-06T17:50:02.942Z,99494.91
2022-12-06T17:52:31.998Z,99495.75
2022-12-06T17:55:00.889Z,99502.56
2022-12-06T17:57:29.910Z,99500.00
2022-12-06T17:59:58.563Z,99500.00
2022-12-06T18:02:28.667Z,99500.00
2022-12-06T18:04:57.907Z,99495.84
2022-12-06T18:07:27.429Z,99498.41
2022-12-06T18:09:56.044Z,99498.41
2022-12-06T18:12:24.684Z,99489.03
2022-12-06T18:14:54.130Z,99494.91
2022-12-06T18:17:22.699Z,99500.00
2022-12-06T18:19:52.663Z,99499.13
2022-12-06T18:22:21.434Z,99498.31
2022-12-06T18:24:50.045Z,99500.84
2022-12-06T18:27:18.650Z,99498.31
2022-12-06T18:29:47.267Z,99501.66
2022-12-06T18:32:15.907Z,99497.38
2022-12-06T18:34:44.557Z,99503.31
2022-12-06T18:37:14.544Z,99501.56
2022-12-06T18:39:43.145Z,99508.41
2022-12-06T18:42:11.732Z,99502.41
2022-12-06T18:44:40.801Z,99503.31
2022-12-06T18:47:09.391Z,99504.97
2022-12-06T18:49:37.981Z,99501.56
2022-12-06T18:52:06.771Z,99505.78
2022-12-06T18:54:36.894Z,99499.03
2022-12-06T18:57:07.451Z,99499.03
2022-12-06T18:59:37.715Z,99506.66
2022-12-06T19:02:06.550Z,99511.75
2022-12-06T19:04:35.229Z,99507.50
2022-12-06T19:07:03.909Z,99515.94
2022-12-06T19:09:32.823Z,99520.22
2022-12-06T19:12:04.932Z,99508.31
2022-12-06T19:14:33.540Z,99509.22
2022-12-06T19:17:02.310Z,99508.31
2022-12-06T19:19:31.270Z,99502.41
2022-12-06T19:22:00.408Z,99498.22
2022-12-06T19:24:29.976Z,99499.03
2022-12-06T19:26:59.199Z,99502.41
2022-12-06T19:29:29.948Z,99510.06
2022-12-06T19:31:58.588Z,99504.03
2022-12-06T19:34:28.122Z,99516.75
2022-12-06T19:36:57.999Z,99509.97
2022-12-06T19:39:27.047Z,99513.41
2022-12-06T19:42:13.222Z,99508.41
2022-12-06T19:44:43.337Z,99510.94
2022-12-06T19:47:13.702Z,99505.78
2022-12-06T19:49:42.515Z,99507.50
2022-12-06T19:52:11.331Z,99508.41
2022-12-06T19:54:41.748Z,99497.38
2022-12-06T19:57:10.523Z,99502.47
2022-12-06T19:59:40.436Z,99506.75
2022-12-06T20:02:13.765Z,99506.75
2022-12-06T20:04:43.988Z,99505.94
2022-12-06T20:07:12.663Z,99508.56
2022-12-06T20:09:41.352Z,99509.38
2022-12-06T20:12:10.003Z,99499.19
2022-12-06T20:14:41.171Z,99501.75
2022-12-06T20:17:15.103Z,99508.56
2022-12-06T20:19:46.135Z,99519.66
2022-12-06T20:22:16.180Z,99519.66
2022-12-06T20:24:45.226Z,99522.19
2022-12-06T20:27:13.927Z,99519.66
2022-12-06T20:29:42.938Z,99522.09
2022-12-06T20:32:13.036Z,99520.44
2022-12-06T20:34:41.919Z,99508.56
2022-12-06T20:37:10.675Z,99510.19
2022-12-06T20:39:39.227Z,99512.72
2022-12-06T20:42:07.924Z,99513.66
2022-12-06T20:44:37.196Z,99512.91
2022-12-06T20:47:06.244Z,99517.91
2022-12-06T20:49:36.703Z,99517.91
2022-12-06T20:52:06.919Z,99518.75
2022-12-06T20:54:35.487Z,99517.00
2022-12-06T20:57:07.918Z,99512.81
2022-12-06T20:59:37.239Z,99520.44
2022-12-06T21:02:06.689Z,99523.84
2022-12-06T21:04:55.337Z,99514.56
2022-12-06T21:07:42.720Z,99511.16
2022-12-06T21:10:29.751Z,99514.63
2022-12-06T21:13:17.081Z,99507.91
2022-12-06T21:16:06.506Z,99512.19
2022-12-06T21:18:57.336Z,99514.81
2022-12-06T21:21:49.337Z,99510.66
2022-12-06T21:24:36.630Z,99499.66
2022-12-06T21:27:23.951Z,99501.38
2022-12-06T21:30:12.596Z,99503.16
2022-12-06T21:32:59.692Z,99505.72
2022-12-06T21:35:47.855Z,99504.97
2022-12-06T21:38:36.456Z,99510.97
2022-12-06T21:41:24.007Z,99510.97
2022-12-06T21:44:11.153Z,99510.16
2022-12-06T21:46:58.415Z,99506.78
2022-12-06T21:49:45.279Z,99508.41
2022-12-06T21:52:32.342Z,99516.94
2022-12-06T21:55:21.683Z,99510.22
2022-12-06T21:58:08.999Z,99528.09
2022-12-06T22:00:56.053Z,99515.47
2022-12-06T22:03:43.279Z,99512.91
2022-12-06T22:06:31.532Z,99515.47
2022-12-06T22:09:19.063Z,99520.56
2022-12-06T22:12:08.156Z,99516.31
2022-12-06T22:14:55.463Z,99518.00
2022-12-06T22:17:42.662Z,99518.00
2022-12-06T22:20:29.780Z,99519.75
2022-12-06T22:23:17.056Z,99512.09
2022-12-06T22:26:08.134Z,99516.34
2022-12-06T22:28:57.532Z,99517.28
2022-12-06T22:31:44.794Z,99515.53
2022-12-06T22:34:32.764Z,99517.28
2022-12-06T22:37:24.070Z,99514.75
2022-12-06T22:40:14.510Z,99512.19
2022-12-06T22:43:01.654Z,99509.66
2022-12-06T22:45:50.418Z,99512.19
2022-12-06T22:48:38.039Z,99506.25
2022-12-06T22:51:27.820Z,99515.53
2022-12-06T22:54:15.791Z,99509.66
2022-12-06T22:57:03.117Z,99509.66
2022-12-06T22:59:50.079Z,99504.56
2022-12-06T23:02:38.527Z,99514.75
2022-12-06T23:05:25.795Z,99510.47
2022-12-06T23:08:12.925Z,99502.03
2022-12-06T23:11:01.855Z,99499.47
2022-12-06T23:13:49.797Z,99499.47
2022-12-06T23:16:37.002Z,99500.38
2022-12-06T23:19:25.579Z,99501.25
2022-12-06T23:22:12.863Z,99497.91
2022-12-06T23:25:00.115Z,99505.53
2022-12-06T23:27:47.193Z,99507.25
2022-12-06T23:30:34.336Z,99508.16
2022-12-06T23:33:22.918Z,99506.50
2022-12-06T23:36:14.719Z,99513.25
2022-12-06T23:39:02.017Z,99510.78
2022-12-06T23:41:49.585Z,99512.50
2022-12-06T23:44:37.141Z,99512.56
2022-12-06T23:47:25.071Z,99510.03
2022-12-06T23:50:13.019Z,99512.56
2022-12-06T23:53:01.600Z,99505.84
2022-12-06T23:55:49.032Z,99503.28
2022-12-06T23:58:36.932Z,99503.22
